createdAt,value
2023-05-07T00:01:08.003Z,17.29
2023-05-07T00:03:57.511Z,17.25
2023-05-07T00:06:47.016Z,17.27
2023-05-07T00:09:36.377Z,17.25
2023-05-07T00:12:27.075Z,17.17
2023-05-07T00:15:16.401Z,17.15
2023-05-07T00:18:06.010Z,17.08
2023-05-07T00:20:55.289Z,17.09
2023-05-07T00:23:44.694Z,17.01
2023-05-07T00:26:34.025Z,16.94
2023-05-07T00:29:24.780Z,16.98
2023-05-07T00:32:14.249Z,16.93
2023-05-07T00:35:03.516Z,16.93
2023-05-07T00:37:52.806Z,16.92
2023-05-07T00:40:42.240Z,16.86
2023-05-07T00:43:31.825Z,16.85
2023-05-07T00:46:23.804Z,16.80
2023-05-07T00:49:13.748Z,16.82
2023-05-07T00:52:03.653Z,16.80
2023-05-07T00:54:53.165Z,16.81
2023-05-07T00:57:44.083Z,16.66
2023-05-07T01:00:33.455Z,16.81
2023-05-07T01:03:24.219Z,16.82
2023-05-07T01:06:17.854Z,16.77
2023-05-07T01:09:08.771Z,16.82
2023-05-07T01:11:59.448Z,16.86
2023-05-07T01:14:50.826Z,16.88
2023-05-07T01:17:42.140Z,16.86
2023-05-07T01:20:38.210Z,16.90
2023-05-07T01:23:30.483Z,16.89
2023-05-07T01:26:20.719Z,16.94
2023-05-07T01:29:10.317Z,16.93
2023-05-07T01:32:03.066Z,16.88
2023-05-07T01:34:54.594Z,16.96
2023-05-07T01:37:43.994Z,16.97
2023-05-07T01:40:35.615Z,16.67
2023-05-07T01:43:25.095Z,16.92
2023-05-07T01:46:15.289Z,16.93
2023-05-07T01:49:04.695Z,16.95
2023-05-07T01:51:54.445Z,16.88
2023-05-07T01:54:43.690Z,16.94
2023-05-07T01:57:34.517Z,16.91
2023-05-07T02:00:24.661Z,16.86
2023-05-07T02:03:14.246Z,16.90
2023-05-07T02:06:11.785Z,16.88
2023-05-07T02:09:02.812Z,16.87
2023-05-07T02:11:52.314Z,16.88
2023-05-07T02:14:44.889Z,16.84
2023-05-07T02:17:34.978Z,16.86
2023-05-07T02:20:24.415Z,16.76
2023-05-07T02:23:13.635Z,16.85
2023-05-07T02:26:02.906Z,16.87
2023-05-07T02:28:53.126Z,16.88
2023-05-07T02:31:43.923Z,16.72
2023-05-07T02:34:34.332Z,16.80
2023-05-07T02:37:23.711Z,16.81
2023-05-07T02:40:14.666Z,16.73
2023-05-07T02:43:04.086Z,16.76
2023-05-07T02:46:03.994Z,16.68
2023-05-07T02:48:55.146Z,16.66
2023-05-07T02:51:44.427Z,16.47
2023-05-07T02:54:40.039Z,16.55
2023-05-07T02:57:29.401Z,16.44
2023-05-07T03:00:21.383Z,16.33
2023-05-07T03:03:23.482Z,16.31
2023-05-07T03:06:14.363Z,16.11
2023-05-07T03:09:04.106Z,16.21
2023-05-07T03:11:54.064Z,16.17
2023-05-07T03:14:43.325Z,16.10
2023-05-07T03:17:32.701Z,16.05
2023-05-07T03:20:22.120Z,16.04
2023-05-07T03:23:13.043Z,16.03
2023-05-07T03:26:02.265Z,16.00
2023-05-07T03:28:51.707Z,16.00
2023-05-07T03:31:41.093Z,15.99
2023-05-07T03:34:30.425Z,15.97
2023-05-07T03:37:19.772Z,15.95
2023-05-07T03:40:13.801Z,15.95
2023-05-07T03:43:13.098Z,15.92
2023-05-07T03:46:07.413Z,15.95
2023-05-07T03:48:57.148Z,15.93
2023-05-07T03:51:46.937Z,15.92
2023-05-07T03:54:36.377Z,15.88
2023-05-07T03:57:27.065Z,15.85
2023-05-07T04:00:17.056Z,15.92
2023-05-07T04:03:12.490Z,15.94
2023-05-07T04:06:02.046Z,15.96
2023-05-07T04:08:51.357Z,15.98
2023-05-07T04:11:42.139Z,16.01
2023-05-07T04:14:34.954Z,16.01
2023-05-07T04:17:25.305Z,16.06
2023-05-07T04:20:18.726Z,16.02
2023-05-07T04:23:12.946Z,16.02
2023-05-07T04:26:03.217Z,16.06
2023-05-07T04:28:58.840Z,16.07
2023-05-07T04:31:50.991Z,16.08
2023-05-07T04:34:40.311Z,16.14
2023-05-07T04:37:30.412Z,16.20
2023-05-07T04:40:20.392Z,16.24
2023-05-07T04:43:10.199Z,16.28
2023-05-07T04:46:06.712Z,16.28
2023-05-07T04:48:58.028Z,16.32
2023-05-07T04:51:47.618Z,16.32
2023-05-07T04:54:42.436Z,16.29
2023-05-07T04:57:32.270Z,16.25
2023-05-07T05:00:21.897Z,16.34
2023-05-07T05:03:13.268Z,16.33
2023-05-07T05:06:04.652Z,16.30
2023-05-07T05:08:56.769Z,16.26
2023-05-07T05:11:47.854Z,16.23
2023-05-07T05:14:38.563Z,16.17
2023-05-07T05:17:28.273Z,16.13
2023-05-07T05:20:17.710Z,16.09
2023-05-07T05:23:09.688Z,16.08
2023-05-07T05:25:59.904Z,16.04
2023-05-07T05:28:52.788Z,16.15
2023-05-07T05:31:44.686Z,16.18
2023-05-07T05:34:34.890Z,16.25
2023-05-07T05:37:24.504Z,16.27
2023-05-07T05:40:16.042Z,16.24
2023-05-07T05:43:05.514Z,16.27
2023-05-07T05:45:57.537Z,16.26
2023-05-07T05:48:46.975Z,16.23
2023-05-07T05:51:36.951Z,16.13
2023-05-07T05:54:26.470Z,16.17
2023-05-07T05:57:17.594Z,16.15
2023-05-07T06:00:10.144Z,16.14
2023-05-07T06:03:07.858Z,16.15
2023-05-07T06:05:59.099Z,16.13
2023-05-07T06:08:48.922Z,16.18
2023-05-07T06:11:43.758Z,16.14
2023-05-07T06:14:35.809Z,16.23
2023-05-07T06:17:25.373Z,16.39
2023-05-07T06:20:14.761Z,16.48
2023-05-07T06:23:04.495Z,16.56
2023-05-07T06:25:56.270Z,16.64
2023-05-07T06:28:52.851Z,16.72
2023-05-07T06:31:43.710Z,16.80
2023-05-07T06:34:34.181Z,16.80
2023-05-07T06:37:24.015Z,16.80
2023-05-07T06:40:20.612Z,16.82
2023-05-07T06:43:11.138Z,16.89
2023-05-07T06:46:18.959Z,17.03
2023-05-07T06:49:11.117Z,17.18
2023-05-07T06:52:00.555Z,17.40
2023-05-07T06:54:50.033Z,17.57
2023-05-07T06:57:41.387Z,17.71
2023-05-07T07:00:30.777Z,17.94
2023-05-07T07:03:20.291Z,18.17
2023-05-07T07:06:11.253Z,18.27
2023-05-07T07:09:00.740Z,18.38
2023-05-07T07:11:50.305Z,18.51
2023-05-07T07:14:40.073Z,18.57
2023-05-07T07:17:29.722Z,18.58
2023-05-07T07:20:19.598Z,18.54
2023-05-07T07:23:11.352Z,18.53
2023-05-07T07:26:00.902Z,18.51
2023-05-07T07:28:50.633Z,18.50
2023-05-07T07:31:43.322Z,18.60
2023-05-07T07:34:33.386Z,18.76
2023-05-07T07:37:26.655Z,18.97
2023-05-07T07:40:18.269Z,19.07
2023-05-07T07:43:09.029Z,19.11
2023-05-07T07:45:58.445Z,19.19
2023-05-07T07:48:47.893Z,19.24
2023-05-07T07:51:37.667Z,19.29
2023-05-07T07:54:27.451Z,19.38
2023-05-07T07:57:18.271Z,19.51
2023-05-07T08:00:10.185Z,19.71
2023-05-07T08:03:06.459Z,19.88
2023-05-07T08:06:00.675Z,20.03
2023-05-07T08:08:50.387Z,20.10
2023-05-07T08:11:40.690Z,20.33
2023-05-07T08:14:31.712Z,20.44
2023-05-07T08:17:23.310Z,20.63
2023-05-07T08:20:14.390Z,20.92
2023-05-07T08:23:03.912Z,21.24
2023-05-07T08:25:53.387Z,21.57
2023-05-07T08:28:43.687Z,21.88
2023-05-07T08:31:34.459Z,22.19
2023-05-07T08:34:24.816Z,22.46
2023-05-07T08:37:15.876Z,22.79
2023-05-07T08:40:09.724Z,23.20
2023-05-07T08:43:02.699Z,23.62
2023-05-07T08:45:56.031Z,24.01
2023-05-07T08:48:53.431Z,24.32
2023-05-07T08:51:44.804Z,24.41
2023-05-07T08:54:35.837Z,24.22
2023-05-07T08:57:25.982Z,24.14
2023-05-07T09:00:17.276Z,24.17
2023-05-07T09:03:09.821Z,24.38
2023-05-07T09:06:01.374Z,24.41
2023-05-07T09:08:53.127Z,24.44
2023-05-07T09:11:43.578Z,24.46
2023-05-07T09:14:34.743Z,24.22
2023-05-07T09:17:25.817Z,23.94
2023-05-07T09:20:16.155Z,23.70
2023-05-07T09:23:08.224Z,23.59
2023-05-07T09:26:03.300Z,23.61
2023-05-07T09:28:56.207Z,23.63
2023-05-07T09:31:45.853Z,23.61
2023-05-07T09:34:38.975Z,23.30
2023-05-07T09:37:29.928Z,23.16
2023-05-07T09:40:29.341Z,23.17
2023-05-07T09:43:21.950Z,22.86
2023-05-07T09:46:18.605Z,22.59
2023-05-07T09:49:24.870Z,22.29
2023-05-07T09:52:21.984Z,22.10
2023-05-07T09:55:15.613Z,21.84
2023-05-07T09:58:08.567Z,21.59
2023-05-07T10:00:59.848Z,21.57
2023-05-07T10:03:51.305Z,21.78
2023-05-07T10:06:41.413Z,22.11
2023-05-07T10:09:31.373Z,22.38
2023-05-07T10:12:22.134Z,22.47
2023-05-07T10:15:15.533Z,22.90
2023-05-07T10:18:09.908Z,23.65
2023-05-07T10:21:09.137Z,24.35
2023-05-07T10:24:02.950Z,24.65
2023-05-07T10:26:57.972Z,24.92
2023-05-07T10:30:00.827Z,25.30
2023-05-07T10:32:59.078Z,25.53
2023-05-07T10:35:57.673Z,25.79
2023-05-07T10:38:47.855Z,25.94
2023-05-07T10:41:38.881Z,26.27
2023-05-07T10:44:30.054Z,26.67
2023-05-07T10:47:24.525Z,27.21
2023-05-07T10:50:26.239Z,27.66
2023-05-07T10:53:28.680Z,27.50
2023-05-07T10:56:30.216Z,27.20
2023-05-07T10:59:44.595Z,26.88
2023-05-07T11:03:08.130Z,26.47
2023-05-07T11:06:16.393Z,25.96
2023-05-07T11:10:02.624Z,25.42
2023-05-07T11:13:13.380Z,25.50
2023-05-07T11:16:20.486Z,25.71
2023-05-07T11:19:13.057Z,25.93
2023-05-07T11:22:28.344Z,26.20
2023-05-07T11:25:28.835Z,26.45
2023-05-07T11:28:24.272Z,26.62
2023-05-07T11:31:31.161Z,26.54
2023-05-07T11:34:25.166Z,26.41
2023-05-07T11:37:21.520Z,26.61
2023-05-07T11:40:18.657Z,26.82
2023-05-07T11:43:13.538Z,27.04
2023-05-07T11:46:10.510Z,27.13
2023-05-07T11:49:00.255Z,27.38
2023-05-07T11:51:49.652Z,27.19
2023-05-07T11:54:40.770Z,26.72
2023-05-07T11:57:30.548Z,26.36
2023-05-07T12:00:20.525Z,26.05
2023-05-07T12:03:09.942Z,25.88
2023-05-07T12:05:59.320Z,25.67
2023-05-07T12:08:49.460Z,25.48
2023-05-07T12:11:42.065Z,25.65
2023-05-07T12:14:31.586Z,25.96
2023-05-07T12:17:21.002Z,25.98
2023-05-07T12:20:11.961Z,25.92
2023-05-07T12:23:01.543Z,25.71
2023-05-07T12:25:51.447Z,25.41
2023-05-07T12:28:42.380Z,25.02
2023-05-07T12:31:31.844Z,24.72
2023-05-07T12:34:21.153Z,24.99
2023-05-07T12:37:11.214Z,25.47
2023-05-07T12:40:08.520Z,25.96
2023-05-07T12:42:59.049Z,26.49
2023-05-07T12:45:53.378Z,26.93
2023-05-07T12:48:46.925Z,27.21
2023-05-07T12:51:38.115Z,27.57
2023-05-07T12:54:32.260Z,27.68
2023-05-07T12:57:22.767Z,27.65
2023-05-07T13:00:14.081Z,27.79
2023-05-07T13:03:05.045Z,27.83
2023-05-07T13:05:58.511Z,27.84
2023-05-07T13:08:48.377Z,27.76
2023-05-07T13:11:38.084Z,27.79
2023-05-07T13:14:27.454Z,27.22
2023-05-07T13:17:16.757Z,26.77
2023-05-07T13:20:09.385Z,26.45
2023-05-07T13:22:58.343Z,26.01
2023-05-07T13:25:47.806Z,25.54
2023-05-07T13:28:38.477Z,25.39
2023-05-07T13:31:28.055Z,25.07
2023-05-07T13:34:17.280Z,24.82
2023-05-07T13:37:11.396Z,24.67
2023-05-07T13:40:00.868Z,24.47
2023-05-07T13:42:50.159Z,24.28
2023-05-07T13:45:39.443Z,24.32
2023-05-07T13:48:29.482Z,24.54
2023-05-07T13:51:19.391Z,24.49
2023-05-07T13:54:10.023Z,24.52
2023-05-07T13:56:59.338Z,24.85
2023-05-07T13:59:48.630Z,25.13
2023-05-07T14:02:38.095Z,25.35
2023-05-07T14:05:29.080Z,25.41
2023-05-07T14:08:20.712Z,25.53
2023-05-07T14:11:11.443Z,25.50
2023-05-07T14:14:00.732Z,25.73
2023-05-07T14:16:51.009Z,25.75
2023-05-07T14:19:40.744Z,26.16
2023-05-07T14:22:30.102Z,26.32
2023-05-07T14:25:43.692Z,26.32
2023-05-07T14:28:41.231Z,26.22
2023-05-07T14:31:30.981Z,26.21
2023-05-07T14:34:20.267Z,25.91
2023-05-07T14:37:09.595Z,25.65
2023-05-07T14:39:58.977Z,25.48
2023-05-07T14:42:48.168Z,25.13
2023-05-07T14:45:39.405Z,24.84
2023-05-07T14:48:28.693Z,24.58
2023-05-07T14:51:18.010Z,24.41
2023-05-07T14:54:07.350Z,24.16
2023-05-07T14:56:57.770Z,24.08
2023-05-07T14:59:48.037Z,24.12
2023-05-07T15:02:39.057Z,23.93
2023-05-07T15:05:28.789Z,23.79
2023-05-07T15:08:18.152Z,23.69
2023-05-07T15:11:07.470Z,23.53
2023-05-07T15:13:57.008Z,23.36
2023-05-07T15:16:46.793Z,23.35
2023-05-07T15:19:37.753Z,23.19
2023-05-07T15:22:27.130Z,23.08
2023-05-07T15:25:16.865Z,22.81
2023-05-07T15:28:07.253Z,22.61
2023-05-07T15:30:57.108Z,22.48
2023-05-07T15:33:48.598Z,22.38
2023-05-07T15:36:39.359Z,22.45
2023-05-07T15:39:28.588Z,22.29
2023-05-07T15:42:18.067Z,22.24
2023-05-07T15:45:09.428Z,22.07
2023-05-07T15:47:59.291Z,21.94
2023-05-07T15:50:49.177Z,21.98
2023-05-07T15:53:40.099Z,21.92
2023-05-07T15:56:29.406Z,21.88
2023-05-07T15:59:19.244Z,21.83
2023-05-07T16:02:09.403Z,22.12
2023-05-07T16:04:58.713Z,22.19
2023-05-07T16:07:48.725Z,22.26
2023-05-07T16:10:39.432Z,22.26
2023-05-07T16:13:28.840Z,22.35
2023-05-07T16:16:18.091Z,22.26
2023-05-07T16:19:07.415Z,21.83
2023-05-07T16:21:57.251Z,22.04
2023-05-07T16:24:46.689Z,21.86
2023-05-07T16:27:37.423Z,21.76
2023-05-07T16:30:26.940Z,21.76
2023-05-07T16:33:16.289Z,21.58
2023-05-07T16:36:06.140Z,21.57
2023-05-07T16:38:55.478Z,21.63
2023-05-07T16:41:45.392Z,21.61
2023-05-07T16:44:36.091Z,21.53
2023-05-07T16:47:25.527Z,21.54
2023-05-07T16:50:15.257Z,21.52
2023-05-07T16:53:06.827Z,21.43
2023-05-07T16:55:56.709Z,21.48
2023-05-07T16:58:46.122Z,21.32
2023-05-07T17:01:37.087Z,21.30
2023-05-07T17:04:26.574Z,21.30
2023-05-07T17:07:16.477Z,21.37
2023-05-07T17:10:07.444Z,21.45
2023-05-07T17:12:56.753Z,21.47
2023-05-07T17:15:47.708Z,21.27
2023-05-07T17:18:38.622Z,21.22
2023-05-07T17:21:28.420Z,20.90
2023-05-07T17:24:18.813Z,20.92
2023-05-07T17:27:08.166Z,20.93
2023-05-07T17:29:57.423Z,20.70
2023-05-07T17:32:46.989Z,20.60
2023-05-07T17:35:37.891Z,20.54
2023-05-07T17:38:27.436Z,20.47
2023-05-07T17:41:16.790Z,20.36
2023-05-07T17:44:06.591Z,20.35
2023-05-07T17:46:55.969Z,20.24
2023-05-07T17:49:45.910Z,20.22
2023-05-07T17:52:37.475Z,20.32
2023-05-07T17:55:27.017Z,20.29
2023-05-07T17:58:16.424Z,20.29
2023-05-07T18:01:05.740Z,20.16
2023-05-07T18:03:55.320Z,20.21
2023-05-07T18:06:44.723Z,20.23
2023-05-07T18:09:35.799Z,20.35
2023-05-07T18:12:27.452Z,20.39
2023-05-07T18:15:17.401Z,20.50
2023-05-07T18:18:07.247Z,20.51
2023-05-07T18:20:56.534Z,20.66
2023-05-07T18:23:46.406Z,20.76
2023-05-07T18:26:37.267Z,20.79
2023-05-07T18:29:26.584Z,20.72
2023-05-07T18:32:16.180Z,20.64
2023-05-07T18:35:06.610Z,20.55
2023-05-07T18:37:56.045Z,20.53
2023-05-07T18:40:45.372Z,20.50
2023-05-07T18:43:36.272Z,20.48
2023-05-07T18:46:25.526Z,20.43
2023-05-07T18:49:14.783Z,20.39
2023-05-07T18:52:04.481Z,20.37
2023-05-07T18:54:53.739Z,20.40
2023-05-07T18:57:44.991Z,20.37
2023-05-07T19:00:35.713Z,20.31
2023-05-07T19:03:25.026Z,20.31
2023-05-07T19:06:14.881Z,20.29
2023-05-07T19:09:05.406Z,20.24
2023-05-07T19:11:54.689Z,20.26
2023-05-07T19:14:44.854Z,20.25
2023-05-07T19:17:36.420Z,20.20
2023-05-07T19:20:25.857Z,20.14
2023-05-07T19:23:15.128Z,20.14
2023-05-07T19:26:04.561Z,20.04
2023-05-07T19:29:06.674Z,20.10
2023-05-07T19:32:03.296Z,19.99
2023-05-07T19:34:53.994Z,19.93
2023-05-07T19:37:43.183Z,19.94
2023-05-07T19:40:33.199Z,19.93
2023-05-07T19:43:22.766Z,19.95
2023-05-07T19:46:12.254Z,19.87
2023-05-07T19:49:01.696Z,19.87
2023-05-07T19:51:52.498Z,19.83
2023-05-07T19:54:41.749Z,19.76
2023-05-07T19:57:31.334Z,19.69
2023-05-07T20:00:21.977Z,19.67
2023-05-07T20:03:18.619Z,19.70
2023-05-07T20:06:08.144Z,19.62
2023-05-07T20:08:59.137Z,19.61
2023-05-07T20:11:48.421Z,19.59
2023-05-07T20:14:37.702Z,19.56
2023-05-07T20:17:27.346Z,19.42
2023-05-07T20:20:16.597Z,19.51
2023-05-07T20:23:05.860Z,19.45
2023-05-07T20:25:56.514Z,19.37
2023-05-07T20:28:45.791Z,19.30
2023-05-07T20:31:35.467Z,19.29
2023-05-07T20:34:24.837Z,19.28
2023-05-07T20:37:15.893Z,19.22
2023-05-07T20:40:06.337Z,19.30
2023-05-07T20:42:57.089Z,19.29
2023-05-07T20:45:46.504Z,19.27
2023-05-07T20:48:36.535Z,19.13
2023-05-07T20:51:25.786Z,19.15
2023-05-07T20:54:15.106Z,19.10
2023-05-07T20:57:04.506Z,19.12
2023-05-07T20:59:55.347Z,18.95
2023-05-07T21:02:45.566Z,18.85
2023-05-07T21:05:35.259Z,18.78
2023-05-07T21:08:24.984Z,18.75
2023-05-07T21:11:14.278Z,18.65
2023-05-07T21:14:04.321Z,18.61
2023-05-07T21:16:55.238Z,18.55
2023-05-07T21:19:44.582Z,18.56
2023-05-07T21:22:33.799Z,18.50
2023-05-07T21:25:23.060Z,18.50
2023-05-07T21:28:12.338Z,18.43
2023-05-07T21:31:01.707Z,18.39
2023-05-07T21:33:54.268Z,18.41
2023-05-07T21:36:43.519Z,18.41
2023-05-07T21:39:32.731Z,18.43
2023-05-07T21:42:23.187Z,18.47
2023-05-07T21:45:14.489Z,18.42
2023-05-07T21:48:03.882Z,18.42
2023-05-07T21:51:03.237Z,18.36
2023-05-07T21:53:52.489Z,18.33
2023-05-07T21:56:41.790Z,18.25
2023-05-07T21:59:31.068Z,18.28
2023-05-07T22:02:20.567Z,18.31
2023-05-07T22:05:10.943Z,18.31
2023-05-07T22:08:01.753Z,18.30
2023-05-07T22:10:51.080Z,18.30
2023-05-07T22:13:40.473Z,18.24
2023-05-07T22:16:29.791Z,18.14
2023-05-07T22:19:19.242Z,18.15
2023-05-07T22:22:08.708Z,18.14
2023-05-07T22:24:59.419Z,18.10
2023-05-07T22:27:49.105Z,18.01
2023-05-07T22:30:38.618Z,17.95
2023-05-07T22:33:27.800Z,17.81
2023-05-07T22:36:17.065Z,17.79
2023-05-07T22:39:07.544Z,17.70
2023-05-07T22:41:58.214Z,17.74
2023-05-07T22:44:47.588Z,17.68
2023-05-07T22:47:36.876Z,17.65
2023-05-07T22:50:26.118Z,17.60
2023-05-07T22:53:15.376Z,17.55
2023-05-07T22:56:07.633Z,17.48
2023-05-07T22:58:58.276Z,17.47
2023-05-07T23:01:48.623Z,17.50
2023-05-07T23:04:37.952Z,17.51
2023-05-07T23:07:27.353Z,17.58
2023-05-07T23:10:16.756Z,17.56
2023-05-07T23:13:06.261Z,17.49
2023-05-07T23:15:58.908Z,17.42
2023-05-07T23:18:48.458Z,17.39
2023-05-07T23:21:37.699Z,17.43
2023-05-07T23:24:27.735Z,17.41
2023-05-07T23:27:17.081Z,17.41
2023-05-07T23:30:08.017Z,17.40
2023-05-07T23:32:59.112Z,17.39
2023-05-07T23:35:48.452Z,17.37
2023-05-07T23:38:37.961Z,17.36
2023-05-07T23:41:27.248Z,17.29
2023-05-07T23:44:17.665Z,17.24
2023-05-07T23:47:07.076Z,17.18
2023-05-07T23:49:57.733Z,17.15
2023-05-07T23:52:47.050Z,17.16
2023-05-07T23:55:36.262Z,17.10
2023-05-07T23:58:25.512Z,17.00
